CFG8AC EDDF-GCLA
Flight info
| Callsign | CFG8AC |
|---|---|
| Flight time | N/A |
| Altitude | 31000 |
| Route | ANEKI2L/18 ANEKI Y163 HERBI Y164 MOPAN DCT LUTIX DCT BENOT DCT NEMOS DCT NINTU DCT MEBAK/N0454F330 DCT REPSI DCT LERGA DCT MINSO DCT NARAK DCT AGN/N0437F270 DCT LATEK DCT PPN/N0455F330 DCT MIRPO DCT DGO DCT NEA L14 ADINO DCT ELVAR DCT BEXAL UN866 KUBIL/N0462F350 UN866 KONBA |
| Aircraft | A321/M-SDE3FGHIJ1LORVWXYZ/SB1D1 |
Departure
| Time | N/A |
|---|---|
| Airport | Frankfurt Main Airport (EDDF) |
Arrival
| Time | 2026-05-08 12:18 |
|---|---|
| Airport | La Palma Airport (GCLA) |
| Time | Latitude | Longitude | Altitude | Speed | Heading |
|---|---|---|---|---|---|
| 2026-05-08 10:51 | 35.07757 | -12.22058 | 34952 ft | 367 kts | 220° |
| 2026-05-08 10:51 | 35.03575 | -12.25630 | 34948 ft | 366 kts | 220° |
| 2026-05-08 10:52 | 34.99407 | -12.29192 | 34950 ft | 365 kts | 220° |
| 2026-05-08 10:53 | 34.90964 | -12.36420 | 34955 ft | 364 kts | 220° |
| 2026-05-08 10:53 | 34.86810 | -12.39945 | 34948 ft | 363 kts | 220° |
| 2026-05-08 10:54 | 34.82668 | -12.43472 | 34949 ft | 363 kts | 220° |
| 2026-05-08 10:54 | 34.78526 | -12.46987 | 34953 ft | 363 kts | 220° |
| 2026-05-08 10:55 | 34.74420 | -12.50474 | 34946 ft | 362 kts | 221° |
| 2026-05-08 10:55 | 34.70300 | -12.53981 | 34950 ft | 361 kts | 221° |
| 2026-05-08 10:56 | 34.66179 | -12.57462 | 34953 ft | 360 kts | 220° |
| 2026-05-08 10:56 | 34.62099 | -12.60908 | 34949 ft | 360 kts | 221° |
| 2026-05-08 10:57 | 34.57999 | -12.64384 | 34951 ft | 360 kts | 221° |
| 2026-05-08 10:57 | 34.51835 | -12.69573 | 34945 ft | 359 kts | 221° |
| 2026-05-08 10:58 | 34.47758 | -12.73005 | 34950 ft | 359 kts | 221° |
| 2026-05-08 10:58 | 34.43655 | -12.76450 | 34948 ft | 358 kts | 221° |
| 2026-05-08 10:59 | 34.39556 | -12.79888 | 34950 ft | 358 kts | 221° |
| 2026-05-08 10:59 | 34.35765 | -12.83078 | 34946 ft | 358 kts | 221° |
| 2026-05-08 11:00 | 34.31669 | -12.86517 | 34952 ft | 359 kts | 221° |
| 2026-05-08 11:00 | 34.27595 | -12.89924 | 34951 ft | 358 kts | 221° |
| 2026-05-08 11:01 | 34.23504 | -12.93350 | 34957 ft | 358 kts | 221° |
| 2026-05-08 11:01 | 34.19433 | -12.96786 | 34955 ft | 356 kts | 221° |
| 2026-05-08 11:02 | 34.13374 | -13.01905 | 34952 ft | 355 kts | 221° |
| 2026-05-08 11:03 | 34.09319 | -13.05319 | 34952 ft | 355 kts | 221° |
| 2026-05-08 11:03 | 34.05265 | -13.08725 | 34945 ft | 355 kts | 221° |
| 2026-05-08 11:04 | 34.01239 | -13.12102 | 34946 ft | 355 kts | 221° |
| 2026-05-08 11:04 | 33.97191 | -13.15501 | 34949 ft | 354 kts | 221° |
| 2026-05-08 11:05 | 33.93145 | -13.18897 | 34951 ft | 354 kts | 221° |
| 2026-05-08 11:05 | 33.89107 | -13.22271 | 34951 ft | 353 kts | 221° |
| 2026-05-08 11:06 | 33.85102 | -13.25620 | 34951 ft | 353 kts | 221° |
| 2026-05-08 11:06 | 33.81065 | -13.28987 | 34945 ft | 353 kts | 221° |
| 2026-05-08 11:07 | 33.77024 | -13.32355 | 34942 ft | 353 kts | 221° |
| 2026-05-08 11:07 | 33.73010 | -13.35689 | 34941 ft | 353 kts | 221° |
| 2026-05-08 11:08 | 33.68967 | -13.39044 | 34946 ft | 353 kts | 221° |
| 2026-05-08 11:08 | 33.64926 | -13.42397 | 34949 ft | 353 kts | 221° |
| 2026-05-08 11:09 | 33.60892 | -13.45744 | 34947 ft | 353 kts | 221° |
| 2026-05-08 11:09 | 33.56887 | -13.49073 | 34948 ft | 352 kts | 221° |
| 2026-05-08 11:10 | 33.52859 | -13.52413 | 34934 ft | 352 kts | 221° |
| 2026-05-08 11:10 | 33.48819 | -13.55751 | 34931 ft | 353 kts | 221° |
| 2026-05-08 11:11 | 33.44777 | -13.59090 | 34929 ft | 353 kts | 221° |
| 2026-05-08 11:11 | 33.40760 | -13.62401 | 34931 ft | 353 kts | 221° |
| 2026-05-08 11:12 | 33.36714 | -13.65739 | 34931 ft | 354 kts | 221° |
| 2026-05-08 11:12 | 33.32667 | -13.69076 | 34927 ft | 353 kts | 221° |
| 2026-05-08 11:13 | 33.28618 | -13.72399 | 34923 ft | 353 kts | 221° |
| 2026-05-08 11:13 | 33.24588 | -13.75694 | 34923 ft | 354 kts | 221° |
| 2026-05-08 11:14 | 33.20523 | -13.79024 | 34921 ft | 354 kts | 221° |
| 2026-05-08 11:14 | 33.16457 | -13.82359 | 34924 ft | 355 kts | 221° |
| 2026-05-08 11:15 | 33.12382 | -13.85684 | 34925 ft | 355 kts | 221° |
| 2026-05-08 11:15 | 33.08323 | -13.88986 | 34925 ft | 356 kts | 221° |
| 2026-05-08 11:16 | 33.04224 | -13.92309 | 34920 ft | 357 kts | 221° |
| 2026-05-08 11:16 | 33.00115 | -13.95636 | 34911 ft | 357 kts | 221° |
| 2026-05-08 11:17 | 32.96027 | -13.98940 | 34905 ft | 358 kts | 221° |
| 2026-05-08 11:17 | 32.91903 | -14.02275 | 34899 ft | 359 kts | 221° |
| 2026-05-08 11:18 | 32.87762 | -14.05622 | 34898 ft | 360 kts | 221° |
| 2026-05-08 11:18 | 32.83613 | -14.08962 | 34897 ft | 360 kts | 221° |
| 2026-05-08 11:19 | 32.79487 | -14.12278 | 34894 ft | 360 kts | 221° |
| 2026-05-08 11:19 | 32.75335 | -14.15620 | 34891 ft | 361 kts | 221° |
| 2026-05-08 11:20 | 32.71175 | -14.18966 | 34887 ft | 362 kts | 221° |
| 2026-05-08 11:20 | 32.67001 | -14.22325 | 34887 ft | 363 kts | 221° |
| 2026-05-08 11:21 | 32.62850 | -14.25659 | 34894 ft | 363 kts | 221° |
| 2026-05-08 11:21 | 32.58654 | -14.29009 | 34904 ft | 364 kts | 221° |
| 2026-05-08 11:22 | 32.54462 | -14.32365 | 34912 ft | 364 kts | 221° |
| 2026-05-08 11:22 | 32.50292 | -14.35696 | 34918 ft | 364 kts | 221° |
| 2026-05-08 11:23 | 32.46085 | -14.39049 | 34922 ft | 365 kts | 221° |
| 2026-05-08 11:23 | 32.41881 | -14.42413 | 34924 ft | 365 kts | 221° |
| 2026-05-08 11:24 | 32.37662 | -14.45764 | 34931 ft | 365 kts | 221° |
| 2026-05-08 11:24 | 32.33475 | -14.49089 | 34935 ft | 365 kts | 221° |
| 2026-05-08 11:25 | 32.29255 | -14.52442 | 34931 ft | 365 kts | 221° |
| 2026-05-08 11:25 | 32.25040 | -14.55794 | 34937 ft | 366 kts | 221° |
| 2026-05-08 11:26 | 32.20813 | -14.59147 | 34943 ft | 366 kts | 221° |
| 2026-05-08 11:26 | 32.16618 | -14.62470 | 34943 ft | 365 kts | 221° |
| 2026-05-08 11:27 | 32.12393 | -14.65805 | 34940 ft | 365 kts | 221° |
| 2026-05-08 11:27 | 32.08177 | -14.69144 | 34934 ft | 365 kts | 221° |
| 2026-05-08 11:28 | 32.03958 | -14.72474 | 34934 ft | 365 kts | 221° |
| 2026-05-08 11:28 | 31.99763 | -14.75780 | 34935 ft | 365 kts | 221° |
| 2026-05-08 11:29 | 31.95535 | -14.79107 | 34920 ft | 366 kts | 221° |
| 2026-05-08 11:29 | 31.91286 | -14.82441 | 34916 ft | 368 kts | 221° |
| 2026-05-08 11:30 | 31.87024 | -14.85788 | 34922 ft | 369 kts | 221° |
| 2026-05-08 11:30 | 31.82778 | -14.89119 | 34932 ft | 370 kts | 221° |
| 2026-05-08 11:31 | 31.78490 | -14.92477 | 34935 ft | 371 kts | 221° |
| 2026-05-08 11:31 | 31.74199 | -14.95841 | 34943 ft | 371 kts | 221° |
| 2026-05-08 11:32 | 31.69909 | -14.99201 | 34943 ft | 371 kts | 221° |
| 2026-05-08 11:32 | 31.65644 | -15.02536 | 34944 ft | 371 kts | 221° |
| 2026-05-08 11:33 | 31.61341 | -15.05881 | 34948 ft | 371 kts | 221° |
| 2026-05-08 11:33 | 31.57046 | -15.09228 | 34944 ft | 371 kts | 221° |
| 2026-05-08 11:34 | 31.52746 | -15.12577 | 34948 ft | 371 kts | 221° |
| 2026-05-08 11:34 | 31.48480 | -15.15899 | 34944 ft | 371 kts | 221° |
| 2026-05-08 11:35 | 31.44178 | -15.19241 | 34950 ft | 371 kts | 220° |
| 2026-05-08 11:35 | 31.39877 | -15.22582 | 34948 ft | 371 kts | 221° |
| 2026-05-08 11:36 | 31.35598 | -15.25896 | 34941 ft | 372 kts | 220° |
| 2026-05-08 11:36 | 31.31283 | -15.29231 | 34935 ft | 372 kts | 221° |
| 2026-05-08 11:37 | 31.26841 | -15.32402 | 34936 ft | 376 kts | 217° |
| 2026-05-08 11:37 | 31.22216 | -15.35296 | 34935 ft | 378 kts | 216° |
| 2026-05-08 11:38 | 31.17598 | -15.38136 | 34933 ft | 377 kts | 216° |
| 2026-05-08 11:38 | 31.12981 | -15.41052 | 34933 ft | 377 kts | 217° |
| 2026-05-08 11:39 | 31.08375 | -15.44003 | 34939 ft | 378 kts | 217° |
| 2026-05-08 11:39 | 31.03756 | -15.46952 | 34934 ft | 379 kts | 217° |
| 2026-05-08 11:40 | 30.99150 | -15.49873 | 34933 ft | 380 kts | 216° |
| 2026-05-08 11:40 | 30.94496 | -15.52824 | 34942 ft | 381 kts | 216° |
| 2026-05-08 11:41 | 30.89831 | -15.55772 | 34942 ft | 382 kts | 216° |
| 2026-05-08 11:41 | 30.85160 | -15.58732 | 34943 ft | 382 kts | 216° |
| 2026-05-08 11:42 | 30.80514 | -15.61673 | 34945 ft | 383 kts | 216° |
| 2026-05-08 11:42 | 30.75828 | -15.64628 | 34940 ft | 383 kts | 216° |
| 2026-05-08 11:43 | 30.71134 | -15.67584 | 34946 ft | 384 kts | 216° |
| 2026-05-08 11:43 | 30.66428 | -15.70550 | 34948 ft | 386 kts | 216° |
| 2026-05-08 11:44 | 30.61736 | -15.73510 | 34950 ft | 387 kts | 216° |
| 2026-05-08 11:44 | 30.56996 | -15.76485 | 34956 ft | 388 kts | 216° |
| 2026-05-08 11:45 | 30.52238 | -15.79469 | 34964 ft | 389 kts | 216° |
| 2026-05-08 11:45 | 30.47509 | -15.82433 | 34968 ft | 389 kts | 216° |
| 2026-05-08 11:46 | 30.42746 | -15.85421 | 34974 ft | 389 kts | 216° |
| 2026-05-08 11:46 | 30.37978 | -15.88417 | 34976 ft | 391 kts | 216° |
| 2026-05-08 11:47 | 30.33189 | -15.91408 | 34978 ft | 392 kts | 216° |
| 2026-05-08 11:47 | 30.28416 | -15.94377 | 34982 ft | 392 kts | 216° |
| 2026-05-08 11:48 | 30.23608 | -15.97381 | 34985 ft | 393 kts | 216° |
| 2026-05-08 11:48 | 30.18797 | -16.00388 | 35002 ft | 394 kts | 216° |
| 2026-05-08 11:49 | 30.13970 | -16.03388 | 34994 ft | 394 kts | 216° |
| 2026-05-08 11:49 | 30.09161 | -16.06375 | 35007 ft | 395 kts | 216° |
| 2026-05-08 11:50 | 30.04312 | -16.09380 | 35018 ft | 395 kts | 216° |
| 2026-05-08 11:50 | 29.99469 | -16.12380 | 35016 ft | 395 kts | 216° |
| 2026-05-08 11:51 | 29.94622 | -16.15380 | 35019 ft | 395 kts | 216° |
| 2026-05-08 11:51 | 29.89807 | -16.18360 | 35023 ft | 395 kts | 216° |
| 2026-05-08 11:52 | 29.84959 | -16.21364 | 35025 ft | 395 kts | 216° |
| 2026-05-08 11:52 | 29.80115 | -16.24362 | 35028 ft | 395 kts | 216° |
| 2026-05-08 11:53 | 29.75272 | -16.27356 | 35027 ft | 395 kts | 216° |
| 2026-05-08 11:53 | 29.70458 | -16.30327 | 35030 ft | 396 kts | 216° |
| 2026-05-08 11:54 | 29.65604 | -16.33316 | 35027 ft | 396 kts | 216° |
| 2026-05-08 11:54 | 29.60746 | -16.36304 | 35027 ft | 396 kts | 216° |
| 2026-05-08 11:55 | 29.56344 | -16.39915 | 35022 ft | 387 kts | 226° |
| 2026-05-08 11:55 | 29.52213 | -16.43824 | 35022 ft | 388 kts | 225° |
| 2026-05-08 11:55 | 29.50131 | -16.45791 | 34735 ft | 386 kts | 226° |
| 2026-05-08 11:56 | 29.48042 | -16.47760 | 33336 ft | 394 kts | 225° |
| 2026-05-08 11:56 | 29.45902 | -16.49785 | 31910 ft | 403 kts | 225° |
| 2026-05-08 11:56 | 29.43732 | -16.51835 | 31173 ft | 403 kts | 224° |
| 2026-05-08 11:56 | 29.41568 | -16.53874 | 30351 ft | 404 kts | 224° |
| 2026-05-08 11:57 | 29.39420 | -16.55896 | 29467 ft | 406 kts | 224° |
| 2026-05-08 11:57 | 29.37226 | -16.57957 | 28566 ft | 409 kts | 224° |
| 2026-05-08 11:57 | 29.35037 | -16.60010 | 28020 ft | 403 kts | 224° |
| 2026-05-08 11:57 | 29.32877 | -16.62033 | 27456 ft | 398 kts | 224° |
| 2026-05-08 11:58 | 29.30744 | -16.64031 | 26898 ft | 394 kts | 224° |
| 2026-05-08 11:58 | 29.28639 | -16.66001 | 26342 ft | 388 kts | 224° |
| 2026-05-08 11:58 | 29.26558 | -16.67947 | 25798 ft | 384 kts | 224° |
| 2026-05-08 11:59 | 29.22502 | -16.71743 | 24753 ft | 374 kts | 224° |
| 2026-05-08 11:59 | 29.20499 | -16.73615 | 24233 ft | 370 kts | 224° |
| 2026-05-08 11:59 | 29.18519 | -16.75466 | 23730 ft | 365 kts | 224° |
| 2026-05-08 11:59 | 29.16570 | -16.77290 | 23231 ft | 360 kts | 224° |
| 2026-05-08 12:00 | 29.14642 | -16.79093 | 22745 ft | 356 kts | 224° |
| 2026-05-08 12:00 | 29.12741 | -16.80871 | 22295 ft | 352 kts | 224° |
| 2026-05-08 12:00 | 29.10829 | -16.82670 | 21830 ft | 367 kts | 224° |
| 2026-05-08 12:00 | 29.08844 | -16.84539 | 21376 ft | 371 kts | 224° |
| 2026-05-08 12:01 | 29.06856 | -16.86400 | 20912 ft | 368 kts | 223° |
| 2026-05-08 12:01 | 29.04881 | -16.88238 | 20477 ft | 364 kts | 223° |
| 2026-05-08 12:01 | 29.02922 | -16.90057 | 20044 ft | 362 kts | 223° |
| 2026-05-08 12:01 | 29.00972 | -16.91869 | 19626 ft | 361 kts | 223° |
| 2026-05-08 12:02 | 28.99028 | -16.93679 | 19212 ft | 360 kts | 223° |
| 2026-05-08 12:02 | 28.97118 | -16.95457 | 18804 ft | 358 kts | 223° |
| 2026-05-08 12:02 | 28.95190 | -16.97248 | 18397 ft | 356 kts | 223° |
| 2026-05-08 12:02 | 28.93270 | -16.99032 | 17988 ft | 355 kts | 223° |
| 2026-05-08 12:03 | 28.91355 | -17.00810 | 17577 ft | 353 kts | 223° |
| 2026-05-08 12:03 | 28.89452 | -17.02574 | 17169 ft | 352 kts | 223° |
| 2026-05-08 12:03 | 28.87555 | -17.04334 | 16768 ft | 351 kts | 223° |
| 2026-05-08 12:03 | 28.85664 | -17.06091 | 16339 ft | 350 kts | 223° |
| 2026-05-08 12:04 | 28.83804 | -17.07816 | 15902 ft | 349 kts | 223° |
| 2026-05-08 12:04 | 28.81925 | -17.09559 | 15468 ft | 348 kts | 223° |
| 2026-05-08 12:04 | 28.80053 | -17.11293 | 15034 ft | 346 kts | 223° |
| 2026-05-08 12:04 | 28.78188 | -17.13018 | 14591 ft | 345 kts | 223° |
| 2026-05-08 12:05 | 28.76329 | -17.14739 | 14142 ft | 344 kts | 223° |
| 2026-05-08 12:05 | 28.74476 | -17.16454 | 13689 ft | 343 kts | 223° |
| 2026-05-08 12:05 | 28.72631 | -17.18161 | 13240 ft | 341 kts | 223° |
| 2026-05-08 12:05 | 28.70818 | -17.19837 | 12786 ft | 339 kts | 222° |
| 2026-05-08 12:06 | 28.68992 | -17.21527 | 12313 ft | 338 kts | 222° |
| 2026-05-08 12:06 | 28.67171 | -17.23212 | 11849 ft | 337 kts | 222° |
| 2026-05-08 12:06 | 28.65354 | -17.24890 | 11386 ft | 337 kts | 222° |
| 2026-05-08 12:06 | 28.63535 | -17.26564 | 10908 ft | 335 kts | 222° |
| 2026-05-08 12:07 | 28.61748 | -17.28207 | 10685 ft | 323 kts | 222° |
| 2026-05-08 12:07 | 28.60035 | -17.29781 | 10553 ft | 310 kts | 222° |
| 2026-05-08 12:07 | 28.58394 | -17.31293 | 10451 ft | 297 kts | 222° |
| 2026-05-08 12:07 | 28.56825 | -17.32740 | 10348 ft | 284 kts | 223° |
| 2026-05-08 12:08 | 28.55329 | -17.34119 | 10113 ft | 277 kts | 222° |
| 2026-05-08 12:08 | 28.53840 | -17.35492 | 9920 ft | 274 kts | 223° |
| 2026-05-08 12:08 | 28.52357 | -17.36857 | 9804 ft | 275 kts | 222° |
| 2026-05-08 12:08 | 28.50869 | -17.38226 | 9551 ft | 276 kts | 223° |
| 2026-05-08 12:09 | 28.49375 | -17.39603 | 9079 ft | 277 kts | 222° |
| 2026-05-08 12:09 | 28.47871 | -17.40988 | 8593 ft | 280 kts | 222° |
| 2026-05-08 12:09 | 28.46365 | -17.42369 | 8264 ft | 276 kts | 221° |
| 2026-05-08 12:09 | 28.44898 | -17.43745 | 7788 ft | 275 kts | 226° |
| 2026-05-08 12:10 | 28.43770 | -17.45450 | 7437 ft | 269 kts | 246° |
| 2026-05-08 12:10 | 28.43242 | -17.47459 | 7034 ft | 266 kts | 265° |
| 2026-05-08 12:10 | 28.43195 | -17.49551 | 6623 ft | 264 kts | 270° |
| 2026-05-08 12:10 | 28.43178 | -17.51627 | 6118 ft | 262 kts | 269° |
| 2026-05-08 12:11 | 28.43154 | -17.53693 | 5605 ft | 261 kts | 269° |
| 2026-05-08 12:11 | 28.43127 | -17.55750 | 5088 ft | 260 kts | 269° |
| 2026-05-08 12:11 | 28.43099 | -17.57798 | 4586 ft | 259 kts | 269° |
| 2026-05-08 12:11 | 28.43067 | -17.59804 | 4070 ft | 257 kts | 269° |
| 2026-05-08 12:12 | 28.43038 | -17.61833 | 3543 ft | 257 kts | 269° |
| 2026-05-08 12:12 | 28.43009 | -17.63861 | 3104 ft | 254 kts | 269° |
| 2026-05-08 12:12 | 28.42982 | -17.65817 | 2938 ft | 241 kts | 269° |
| 2026-05-08 12:12 | 28.42957 | -17.67663 | 2827 ft | 227 kts | 269° |
| 2026-05-08 12:13 | 28.42935 | -17.69387 | 2736 ft | 212 kts | 269° |
| 2026-05-08 12:13 | 28.42912 | -17.70985 | 2641 ft | 193 kts | 269° |
| 2026-05-08 12:13 | 28.42891 | -17.72459 | 2556 ft | 186 kts | 268° |
| 2026-05-08 12:13 | 28.42990 | -17.73904 | 2468 ft | 185 kts | 289° |
| 2026-05-08 12:14 | 28.43823 | -17.74986 | 2409 ft | 188 kts | 332° |
| 2026-05-08 12:14 | 28.45114 | -17.75185 | 2430 ft | 191 kts | 3° |
| 2026-05-08 12:14 | 28.46447 | -17.75134 | 2421 ft | 192 kts | 358° |
| 2026-05-08 12:14 | 28.47780 | -17.75168 | 2413 ft | 192 kts | 356° |
| 2026-05-08 12:15 | 28.49112 | -17.75217 | 2410 ft | 192 kts | 356° |
| 2026-05-08 12:15 | 28.50425 | -17.75261 | 2404 ft | 192 kts | 356° |
| 2026-05-08 12:15 | 28.51768 | -17.75302 | 2115 ft | 192 kts | 357° |
| 2026-05-08 12:15 | 28.53062 | -17.75336 | 1865 ft | 179 kts | 358° |
| 2026-05-08 12:16 | 28.54274 | -17.75368 | 1616 ft | 166 kts | 359° |
| 2026-05-08 12:16 | 28.55397 | -17.75399 | 1372 ft | 157 kts | 359° |
| 2026-05-08 12:16 | 28.56478 | -17.75435 | 1150 ft | 153 kts | 359° |
| 2026-05-08 12:16 | 28.57532 | -17.75470 | 980 ft | 152 kts | 0° |
| 2026-05-08 12:17 | 28.58563 | -17.75492 | 749 ft | 150 kts | 2° |
| 2026-05-08 12:17 | 28.59603 | -17.75500 | 560 ft | 149 kts | 0° |
| 2026-05-08 12:17 | 28.60644 | -17.75526 | 371 ft | 150 kts | 1° |
| 2026-05-08 12:17 | 28.61682 | -17.75544 | 171 ft | 149 kts | 360° |
| 2026-05-08 12:18 | 28.62658 | -17.75561 | 107 ft | 115 kts | 359° |
| 2026-05-08 12:18 | 28.63157 | -17.75571 | 90 ft | 33 kts | 359° |
| 2026-05-08 12:18 | 28.63302 | -17.75574 | 85 ft | 17 kts | 359° |
| 2026-05-08 12:18 | 28.63425 | -17.75576 | 81 ft | 17 kts | 359° |
| 2026-05-08 12:19 | 28.63530 | -17.75566 | 78 ft | 15 kts | 17° |
| 2026-05-08 12:19 | 28.63607 | -17.75573 | 70 ft | 6 kts | 276° |
| 2026-05-08 12:19 | 28.63585 | -17.75581 | 76 ft | 6 kts | 179° |
| 2026-05-08 12:19 | 28.63520 | -17.75578 | 78 ft | 13 kts | 178° |
| 2026-05-08 12:20 | 28.63418 | -17.75576 | 82 ft | 14 kts | 179° |
| 2026-05-08 12:20 | 28.63329 | -17.75574 | 84 ft | 12 kts | 179° |
| 2026-05-08 12:20 | 28.63236 | -17.75572 | 87 ft | 15 kts | 179° |
| 2026-05-08 12:20 | 28.63123 | -17.75570 | 91 ft | 18 kts | 179° |
| 2026-05-08 12:21 | 28.62989 | -17.75567 | 95 ft | 21 kts | 179° |
| 2026-05-08 12:21 | 28.62838 | -17.75564 | 100 ft | 23 kts | 179° |
| 2026-05-08 12:21 | 28.62689 | -17.75550 | 106 ft | 20 kts | 162° |
| 2026-05-08 12:21 | 28.62593 | -17.75467 | 109 ft | 16 kts | 143° |
| 2026-05-08 12:22 | 28.62495 | -17.75446 | 111 ft | 14 kts | 180° |
| 2026-05-08 12:22 | 28.62404 | -17.75446 | 113 ft | 12 kts | 180° |
| 2026-05-08 12:22 | 28.62329 | -17.75445 | 114 ft | 10 kts | 178° |
| 2026-05-08 12:22 | 28.62259 | -17.75443 | 114 ft | 10 kts | 178° |
| 2026-05-08 12:23 | 28.62193 | -17.75440 | 114 ft | 9 kts | 179° |
| 2026-05-08 12:23 | 28.62129 | -17.75440 | 114 ft | 9 kts | 179° |
| 2026-05-08 12:23 | 28.62084 | -17.75413 | 114 ft | 7 kts | 107° |
| 2026-05-08 12:23 | 28.62084 | -17.75374 | 114 ft | 3 kts | 92° |
| 2026-05-08 12:24 | 28.62084 | -17.75366 | 114 ft | 0 kts | 91° |
| 2026-05-08 12:24 | 28.62084 | -17.75365 | 114 ft | 0 kts | 91° |